createdAt,value
2023-02-16T00:04:35.416Z,68.93
2023-02-16T00:09:38.280Z,51.30
2023-02-16T00:14:41.581Z,45.33
2023-02-16T00:19:45.765Z,45.70
2023-02-16T00:25:10.820Z,48.23
2023-02-16T00:30:16.204Z,48.07
2023-02-16T00:35:22.678Z,49.47
2023-02-16T00:40:25.561Z,46.73
2023-02-16T00:45:28.473Z,45.40
2023-02-16T00:50:34.670Z,54.40
2023-02-16T00:55:38.809Z,48.77
2023-02-16T01:00:44.019Z,46.43
2023-02-16T01:05:50.082Z,43.30
2023-02-16T01:11:12.608Z,46.20
2023-02-16T01:16:19.534Z,45.50
2023-02-16T01:21:23.774Z,42.80
2023-02-16T01:26:26.684Z,48.63
2023-02-16T01:31:29.653Z,50.43
2023-02-16T01:36:37.392Z,42.20
2023-02-16T01:41:54.149Z,48.90
2023-02-16T01:47:03.605Z,48.23
2023-02-16T01:52:19.311Z,50.43
2023-02-16T01:57:34.387Z,45.07
2023-02-16T02:02:39.724Z,62.77
2023-02-16T02:07:53.125Z,45.57
2023-02-16T02:13:04.271Z,48.47
2023-02-16T02:18:07.508Z,60.97
2023-02-16T02:23:34.595Z,75.70
2023-02-16T02:28:48.686Z,114.13
2023-02-16T02:34:01.400Z,53.43
2023-02-16T02:39:19.541Z,48.33
2023-02-16T02:44:27.885Z,46.90
2023-02-16T02:49:31.296Z,48.67
2023-02-16T02:54:55.143Z,46.47
2023-02-16T03:00:20.401Z,45.40
2023-02-16T03:05:25.052Z,43.13
2023-02-16T03:10:47.445Z,45.17
2023-02-16T03:15:55.860Z,48.57
2023-02-16T03:21:17.508Z,48.30
2023-02-16T03:26:38.281Z,46.70
2023-02-16T03:31:43.192Z,47.47
2023-02-16T03:36:49.127Z,44.17
2023-02-16T03:41:54.580Z,44.60
2023-02-16T03:46:58.749Z,46.20
2023-02-16T03:52:01.580Z,45.93
2023-02-16T03:57:04.672Z,46.63
2023-02-16T04:02:09.038Z,44.53
2023-02-16T04:07:11.902Z,46.80
2023-02-16T04:12:43.933Z,43.17
2023-02-16T04:17:49.096Z,46.50
2023-02-16T04:22:52.018Z,45.57
2023-02-16T04:27:55.159Z,45.07
2023-02-16T04:32:59.831Z,52.90
2023-02-16T04:38:02.701Z,44.97
2023-02-16T04:43:05.575Z,55.92
2023-02-16T04:48:09.796Z,46.20
2023-02-16T04:53:12.698Z,44.17
2023-02-16T04:58:15.991Z,44.22
2023-02-16T05:03:20.218Z,45.63
2023-02-16T05:08:23.144Z,53.03
2023-02-16T05:13:43.494Z,52.50
2023-02-16T05:18:47.695Z,46.27
2023-02-16T05:23:50.560Z,45.40
2023-02-16T05:28:53.499Z,45.23
2023-02-16T05:33:57.943Z,43.13
2023-02-16T05:39:00.992Z,44.03
2023-02-16T05:44:05.323Z,44.43
2023-02-16T05:49:10.846Z,43.20
2023-02-16T05:54:17.433Z,43.63
2023-02-16T05:59:20.830Z,44.10
2023-02-16T06:04:28.628Z,43.87
2023-02-16T06:09:32.026Z,45.77
2023-02-16T06:14:34.886Z,43.97
2023-02-16T06:19:39.132Z,43.67
2023-02-16T06:24:42.007Z,49.87
2023-02-16T06:29:44.944Z,44.27
2023-02-16T06:34:49.148Z,49.77
2023-02-16T06:39:52.040Z,43.37
2023-02-16T06:44:54.933Z,48.63
2023-02-16T06:49:59.138Z,45.53
2023-02-16T06:55:02.165Z,45.47
2023-02-16T07:00:06.823Z,45.80
2023-02-16T07:05:11.413Z,46.93
2023-02-16T07:10:14.418Z,46.37
2023-02-16T07:15:17.288Z,47.03
2023-02-16T07:20:21.616Z,43.20
2023-02-16T07:25:25.687Z,48.83
2023-02-16T07:30:28.617Z,43.03
2023-02-16T07:35:32.873Z,43.80
2023-02-16T07:40:35.742Z,42.23
2023-02-16T07:45:38.654Z,42.83
2023-02-16T07:50:43.037Z,45.80
2023-02-16T07:55:53.870Z,42.60
2023-02-16T08:00:57.577Z,46.07
2023-02-16T08:06:02.553Z,44.23
2023-02-16T08:11:10.295Z,44.63
2023-02-16T08:16:15.539Z,47.30
2023-02-16T08:21:22.073Z,47.40
2023-02-16T08:26:27.316Z,44.73
2023-02-16T08:31:31.848Z,46.30
2023-02-16T08:36:38.225Z,43.57
2023-02-16T08:41:41.394Z,44.93
2023-02-16T08:46:46.565Z,47.53
2023-02-16T08:51:52.850Z,53.00
2023-02-16T08:56:58.410Z,48.43
2023-02-16T09:02:02.529Z,52.07
2023-02-16T09:07:06.877Z,51.33
2023-02-16T09:12:09.727Z,48.97
2023-02-16T09:17:12.575Z,57.13
2023-02-16T09:22:16.801Z,51.93
2023-02-16T09:27:20.134Z,52.33
2023-02-16T09:32:22.989Z,55.03
2023-02-16T09:37:27.232Z,55.37
2023-02-16T09:42:36.039Z,53.53
2023-02-16T09:47:42.947Z,52.03
2023-02-16T09:52:54.318Z,55.73
2023-02-16T09:58:05.939Z,57.10
2023-02-16T10:03:23.638Z,59.70
2023-02-16T10:08:32.273Z,61.10
2023-02-16T10:13:42.468Z,69.30
2023-02-16T10:18:50.256Z,61.30
2023-02-16T10:23:58.662Z,66.50
2023-02-16T10:29:07.002Z,58.90
2023-02-16T10:34:34.257Z,57.83
2023-02-16T10:39:44.090Z,60.57
2023-02-16T10:44:52.182Z,60.90
2023-02-16T10:49:56.810Z,66.10
2023-02-16T10:55:01.475Z,64.93
2023-02-16T11:00:10.210Z,63.70
2023-02-16T11:05:38.050Z,61.55
2023-02-16T11:10:48.757Z,60.60
2023-02-16T11:15:55.908Z,57.33
2023-02-16T11:20:59.669Z,69.90
2023-02-16T11:26:06.488Z,51.10
2023-02-16T11:31:19.577Z,45.20
2023-02-16T11:36:29.090Z,46.85
2023-02-16T11:41:34.565Z,43.30
2023-02-16T11:46:41.758Z,47.45
2023-02-16T11:51:44.716Z,43.63
2023-02-16T11:57:05.194Z,44.90
2023-02-16T12:02:28.986Z,43.90
2023-02-16T12:07:41.421Z,44.17
2023-02-16T12:12:57.342Z,41.60
2023-02-16T12:18:17.715Z,47.58
2023-02-16T12:23:32.568Z,44.78
2023-02-16T12:28:44.015Z,44.38
2023-02-16T12:33:53.020Z,51.92
2023-02-16T12:39:03.317Z,46.88
2023-02-16T12:44:14.900Z,44.67
2023-02-16T12:49:24.388Z,44.03
2023-02-16T12:54:31.060Z,43.90
2023-02-16T12:59:47.054Z,42.42
2023-02-16T13:04:57.283Z,44.45
2023-02-16T13:10:04.253Z,43.80
2023-02-16T13:15:15.796Z,47.53
2023-02-16T13:20:21.227Z,45.33
2023-02-16T13:25:58.017Z,42.50
2023-02-16T13:31:18.047Z,43.10
2023-02-16T13:36:48.893Z,40.35
2023-02-16T13:42:21.740Z,41.53
2023-02-16T13:47:29.510Z,40.30
2023-02-16T13:52:35.392Z,40.97
2023-02-16T13:58:04.488Z,42.60
2023-02-16T14:03:34.458Z,48.47
2023-02-16T14:08:37.349Z,42.95
2023-02-16T14:13:49.568Z,41.97
2023-02-16T14:18:58.821Z,42.58
2023-02-16T14:24:04.098Z,41.72
2023-02-16T14:29:16.073Z,41.67
2023-02-16T14:34:26.389Z,43.63
2023-02-16T14:39:30.135Z,43.15
2023-02-16T14:44:47.007Z,42.50
2023-02-16T14:50:26.535Z,42.67
2023-02-16T14:56:25.718Z,40.75
2023-02-16T15:01:29.245Z,43.78
2023-02-16T15:06:35.605Z,42.10
2023-02-16T15:11:58.622Z,40.72
2023-02-16T15:17:01.697Z,40.33
2023-02-16T15:22:20.092Z,41.08
2023-02-16T15:27:25.969Z,40.35
2023-02-16T15:32:28.954Z,41.97
2023-02-16T15:37:40.075Z,43.72
2023-02-16T15:42:45.890Z,41.70
2023-02-16T15:47:48.963Z,40.53
2023-02-16T15:52:54.059Z,39.80
2023-02-16T15:57:58.973Z,40.65
2023-02-16T16:03:02.512Z,41.10
2023-02-16T16:08:06.748Z,40.92
2023-02-16T16:13:16.772Z,41.10
2023-02-16T16:18:41.104Z,42.90
2023-02-16T16:23:58.987Z,40.10
2023-02-16T16:29:04.439Z,43.10
2023-02-16T16:34:09.669Z,41.38
2023-02-16T16:39:23.551Z,41.65
2023-02-16T16:44:34.375Z,40.22
2023-02-16T16:49:37.318Z,39.95
2023-02-16T16:54:42.641Z,40.22
2023-02-16T16:59:46.820Z,40.22
2023-02-16T17:04:49.654Z,40.33
2023-02-16T17:09:52.509Z,42.53
2023-02-16T17:14:57.127Z,40.70
2023-02-16T17:20:01.089Z,41.53
2023-02-16T17:25:03.984Z,44.53
2023-02-16T17:30:10.977Z,41.85
2023-02-16T17:35:14.822Z,40.55
2023-02-16T17:40:20.350Z,42.95
2023-02-16T17:45:24.558Z,40.47
2023-02-16T17:50:30.185Z,42.17
2023-02-16T17:55:33.064Z,41.63
2023-02-16T18:00:38.115Z,40.78
2023-02-16T18:05:41.437Z,40.72
2023-02-16T18:10:46.697Z,40.75
2023-02-16T18:15:50.984Z,40.88
2023-02-16T18:20:54.239Z,42.28
2023-02-16T18:25:57.207Z,44.50
2023-02-16T18:31:02.272Z,39.75
2023-02-16T18:36:05.990Z,40.08
2023-02-16T18:41:09.260Z,39.63
2023-02-16T18:46:13.579Z,42.45
2023-02-16T18:51:25.914Z,45.67
2023-02-16T18:56:28.860Z,40.03
2023-02-16T19:01:35.243Z,40.20
2023-02-16T19:06:38.276Z,40.17
2023-02-16T19:11:41.404Z,46.63
2023-02-16T19:16:46.124Z,44.28
2023-02-16T19:21:49.040Z,40.85
2023-02-16T19:26:51.957Z,41.20
2023-02-16T19:31:56.291Z,39.92
2023-02-16T19:36:59.227Z,40.42
2023-02-16T19:42:02.067Z,41.58
2023-02-16T19:47:06.413Z,39.47
2023-02-16T19:52:09.333Z,39.60
2023-02-16T19:57:12.243Z,40.13
2023-02-16T20:02:17.080Z,40.13
2023-02-16T20:07:19.944Z,39.20
2023-02-16T20:12:22.881Z,39.47
2023-02-16T20:17:27.230Z,42.45
2023-02-16T20:22:30.097Z,40.78
2023-02-16T20:27:33.412Z,39.55
2023-02-16T20:32:37.892Z,40.40
2023-02-16T20:37:40.894Z,45.33
2023-02-16T20:42:43.892Z,40.60
2023-02-16T20:47:48.076Z,42.30
2023-02-16T20:52:50.941Z,40.90
2023-02-16T20:57:54.913Z,40.72
2023-02-16T21:03:05.347Z,41.10
2023-02-16T21:08:08.239Z,39.20
2023-02-16T21:13:11.112Z,39.78
2023-02-16T21:18:15.625Z,39.17
2023-02-16T21:23:27.815Z,39.33
2023-02-16T21:28:30.897Z,42.03
2023-02-16T21:33:35.309Z,40.03
2023-02-16T21:38:38.979Z,41.40
2023-02-16T21:43:42.052Z,39.35
2023-02-16T21:48:46.267Z,39.45
2023-02-16T21:53:49.723Z,40.08
2023-02-16T21:58:52.728Z,39.47
2023-02-16T22:03:59.242Z,40.85
2023-02-16T22:09:05.678Z,38.72
2023-02-16T22:14:08.812Z,39.55
2023-02-16T22:19:15.132Z,40.13
2023-02-16T22:24:19.831Z,39.08
2023-02-16T22:29:22.762Z,42.90
2023-02-16T22:34:26.995Z,38.78
2023-02-16T22:39:31.481Z,43.50
2023-02-16T22:44:34.419Z,45.08
2023-02-16T22:49:38.616Z,41.45
2023-02-16T22:54:43.613Z,39.97
2023-02-16T22:59:46.699Z,39.78
2023-02-16T23:04:50.937Z,39.30
2023-02-16T23:09:53.994Z,39.50
2023-02-16T23:14:56.852Z,39.40
2023-02-16T23:20:01.045Z,39.78
2023-02-16T23:25:21.232Z,39.85
2023-02-16T23:30:24.133Z,39.45
2023-02-16T23:35:28.388Z,39.25
2023-02-16T23:40:31.283Z,40.15
2023-02-16T23:45:34.276Z,40.60
2023-02-16T23:50:38.480Z,39.72
2023-02-16T23:55:41.396Z,40.53
